Denton, United Kingdom
Current Conditions -  °F | °C
As of 6:20 PM on Tuesday 21 Oct 2014 (Local Time) from EGCC Reporting Station
Light Rain Light Rain  
Wind Chill: 39°   Ceiling: 4800
Heat Index: 45°   Visibility: 6mi
Dew Point: 39°   Wind: 12mph
Humidity: 81%   Direction: 310°NW
Pressure: 29.88"   Gusts: NA
Location:  53.46°N, 2.12°W
Report Text: EGCC 211720Z 31010KT 9999 -RA FEW017TCU SCT039 BKN048 07/04 Q1012 RERA TEMPO SHRA
Loading
Personal Weather Stations






























Interactive Weather Map
Tropical Storm Tracking
New forecast layout! Learn more

10-Day Weather Forecast

Advertisements
Track Severe Weather on mobile